Arnott, WI

7:59 PM CDT on May 29, 2015 (GMT -0500)
Forest Circle neighborhood | | Change Station
CLOSE
Current Station
Personal Weather Station
Location: Stevens Point, WI
Elevation: 1099 ft
Nearby Weather Stations

Elev 1099 ft 44.50 °N, 89.53 °W | Updated 16 seconds ago

Light Rain
Light Rain
65.7 °F
Feels Like 65.7 °F
N
0.0
Wind Variable Wind from WNW
Gusts 0.0 mph

Today
High -- | Low -- °F
--% Chance of Precip.
Yesterday
High -- | Low -- °F
Precip. -- in
5:18 AM 8:33 PM
Waxing Gibbous, 87% visible
Pressure 29.89 in
Visibility 10.0 miles
Clouds Scattered Clouds 3400 ft
Scattered Clouds 7000 ft
Mostly Cloudy 9000 ft
Dew Point 66 °F
Humidity 99%
Rainfall 0.50 in
Snow Depth Not available.
UV 0.0 out of 12
Pollen 2.40 out of 12
Air Quality Not available.
Flu Activity Sporadic
METAR KSTE 300015Z AUTO 00000KT 10SM -RA SCT034 SCT070 BKN090 18/17 A2989 RMK AO2 P0001 T01750171

More Conditions Fewer Conditions

Pressure 29.89 in
Visibility 10.0 miles
Clouds Scattered Clouds 3400 ft
Scattered Clouds 7000 ft
Mostly Cloudy 9000 ft
Dew Point 66 °F
Humidity 99%
Rainfall 0.50 in
Snow Depth Not available.
UV 0.0 out of 12
Pollen 2.40 out of 12
Air Quality Not available.
Flu Activity Sporadic
METAR KSTE 300015Z AUTO 00000KT 10SM -RA SCT034 SCT070 BKN090 18/17 A2989 RMK AO2 P0001 T01750171

More Conditions Fewer Conditions

10-Day Weather Forecast

Almanac

Astronomy

May. 29, 2015 Rise Set
Actual Time
Civil Twilight
Nautical Twilight
Astronomical Twilight
Moon
Length of Visible Light
Length of Day
Tomorrow will be .
, % of the Moon is Illuminated

Today's Extremes

State Highs State Lows

Community

WunderPhotos

Upload Photos

1,825,411 photos uploaded!

WunderBlogs® & News

Nearby

Air Quality

  Air Quality AQ Index Pollutant
Not available.

Snow Depth

Station Depth Elevation

Earthquake Activity

City Distance Mag. Time & Date
Minimum magnitude displayed is 2.5.

Coastal Water Temperatures

Place Temperature

Stations

Nearby Weather Stations

Station Location Temp. Windchill Dew Point Humidity Wind Precip. Elev Updated Type